sensor_id;sensor_type;location;lat;lon;timestamp;P1;durP1;ratioP1;P2;durP2;ratioP2
77055;SDS011;67471;44.918;8.614;2023-06-22T00:02:48;8.15;;;3.80;;
77055;SDS011;67471;44.918;8.614;2023-06-22T00:05:52;5.47;;;4.03;;
77055;SDS011;67471;44.918;8.614;2023-06-22T00:08:56;5.65;;;3.40;;
77055;SDS011;67471;44.918;8.614;2023-06-22T00:12:00;5.63;;;4.18;;
77055;SDS011;67471;44.918;8.614;2023-06-22T00:15:03;5.18;;;3.63;;
77055;SDS011;67471;44.918;8.614;2023-06-22T00:18:08;9.32;;;3.75;;
77055;SDS011;67471;44.918;8.614;2023-06-22T00:21:13;7.35;;;4.72;;
77055;SDS011;67471;44.918;8.614;2023-06-22T00:24:17;8.98;;;4.15;;
77055;SDS011;67471;44.918;8.614;2023-06-22T00:27:22;7.07;;;3.80;;
77055;SDS011;67471;44.918;8.614;2023-06-22T00:30:25;5.30;;;4.05;;
77055;SDS011;67471;44.918;8.614;2023-06-22T00:33:29;6.95;;;4.43;;
77055;SDS011;67471;44.918;8.614;2023-06-22T00:36:33;10.80;;;4.30;;
77055;SDS011;67471;44.918;8.614;2023-06-22T00:39:37;9.25;;;4.72;;
77055;SDS011;67471;44.918;8.614;2023-06-22T00:42:41;9.23;;;4.82;;
77055;SDS011;67471;44.918;8.614;2023-06-22T00:45:45;7.20;;;4.50;;
77055;SDS011;67471;44.918;8.614;2023-06-22T00:48:50;7.30;;;4.20;;
77055;SDS011;67471;44.918;8.614;2023-06-22T00:51:55;9.68;;;4.75;;
77055;SDS011;67471;44.918;8.614;2023-06-22T00:55:02;6.75;;;4.80;;
77055;SDS011;67471;44.918;8.614;2023-06-22T00:58:07;6.85;;;4.13;;
77055;SDS011;67471;44.918;8.614;2023-06-22T01:01:13;13.07;;;4.70;;
77055;SDS011;67471;44.918;8.614;2023-06-22T01:04:17;9.55;;;4.45;;
77055;SDS011;67471;44.918;8.614;2023-06-22T01:14:18;9.60;;;4.97;;
77055;SDS011;67471;44.918;8.614;2023-06-22T01:17:33;6.72;;;4.25;;
77055;SDS011;67471;44.918;8.614;2023-06-22T01:20:39;7.25;;;4.80;;
77055;SDS011;67471;44.918;8.614;2023-06-22T01:23:50;7.43;;;4.50;;
77055;SDS011;67471;44.918;8.614;2023-06-22T01:30:29;6.45;;;4.35;;
77055;SDS011;67471;44.918;8.614;2023-06-22T01:33:34;9.50;;;4.55;;
77055;SDS011;67471;44.918;8.614;2023-06-22T01:36:41;6.18;;;4.50;;
77055;SDS011;67471;44.918;8.614;2023-06-22T01:39:45;7.53;;;5.10;;
77055;SDS011;67471;44.918;8.614;2023-06-22T01:42:49;7.53;;;4.82;;
77055;SDS011;67471;44.918;8.614;2023-06-22T01:45:58;7.18;;;4.63;;
77055;SDS011;67471;44.918;8.614;2023-06-22T01:49:03;7.28;;;4.53;;
77055;SDS011;67471;44.918;8.614;2023-06-22T01:52:08;6.22;;;4.68;;
77055;SDS011;67471;44.918;8.614;2023-06-22T01:55:12;9.35;;;4.53;;
77055;SDS011;67471;44.918;8.614;2023-06-22T01:58:16;7.85;;;4.47;;
77055;SDS011;67471;44.918;8.614;2023-06-22T02:01:23;8.10;;;4.63;;
77055;SDS011;67471;44.918;8.614;2023-06-22T02:07:44;9.73;;;4.83;;
77055;SDS011;67471;44.918;8.614;2023-06-22T02:10:52;6.90;;;4.75;;
77055;SDS011;67471;44.918;8.614;2023-06-22T02:13:59;7.38;;;4.60;;
77055;SDS011;67471;44.918;8.614;2023-06-22T02:17:03;6.57;;;4.75;;
77055;SDS011;67471;44.918;8.614;2023-06-22T02:20:14;6.57;;;4.03;;
77055;SDS011;67471;44.918;8.614;2023-06-22T02:23:18;6.50;;;4.13;;
77055;SDS011;67471;44.918;8.614;2023-06-22T02:26:22;6.00;;;3.70;;
77055;SDS011;67471;44.918;8.614;2023-06-22T02:29:28;7.00;;;4.20;;
77055;SDS011;67471;44.918;8.614;2023-06-22T02:32:32;5.75;;;3.80;;
77055;SDS011;67471;44.918;8.614;2023-06-22T02:35:37;5.40;;;3.78;;
77055;SDS011;67471;44.918;8.614;2023-06-22T02:38:41;7.45;;;4.07;;
77055;SDS011;67471;44.918;8.614;2023-06-22T02:41:54;8.93;;;4.15;;
77055;SDS011;67471;44.918;8.614;2023-06-22T02:44:59;6.93;;;3.83;;
77055;SDS011;67471;44.918;8.614;2023-06-22T02:48:03;14.85;;;4.15;;
77055;SDS011;67471;44.918;8.614;2023-06-22T02:51:07;5.75;;;3.90;;
77055;SDS011;67471;44.918;8.614;2023-06-22T02:54:13;6.65;;;3.63;;
77055;SDS011;67471;44.918;8.614;2023-06-22T02:57:16;5.90;;;4.05;;
77055;SDS011;67471;44.918;8.614;2023-06-22T03:00:21;7.90;;;4.00;;
77055;SDS011;67471;44.918;8.614;2023-06-22T03:03:25;8.80;;;3.92;;
77055;SDS011;67471;44.918;8.614;2023-06-22T03:06:29;5.88;;;4.15;;
77055;SDS011;67471;44.918;8.614;2023-06-22T03:09:33;7.82;;;3.95;;
77055;SDS011;67471;44.918;8.614;2023-06-22T03:12:37;8.45;;;4.10;;
77055;SDS011;67471;44.918;8.614;2023-06-22T03:15:41;7.85;;;4.28;;
77055;SDS011;67471;44.918;8.614;2023-06-22T03:18:45;6.28;;;4.80;;
77055;SDS011;67471;44.918;8.614;2023-06-22T03:21:50;5.50;;;3.88;;
77055;SDS011;67471;44.918;8.614;2023-06-22T03:24:53;7.95;;;4.32;;
77055;SDS011;67471;44.918;8.614;2023-06-22T03:27:58;10.95;;;4.60;;
77055;SDS011;67471;44.918;8.614;2023-06-22T03:31:03;8.68;;;4.85;;
77055;SDS011;67471;44.918;8.614;2023-06-22T03:34:08;9.27;;;5.50;;
77055;SDS011;67471;44.918;8.614;2023-06-22T03:37:15;8.95;;;4.90;;
77055;SDS011;67471;44.918;8.614;2023-06-22T03:40:19;11.48;;;5.05;;
77055;SDS011;67471;44.918;8.614;2023-06-22T03:43:23;12.93;;;5.95;;
77055;SDS011;67471;44.918;8.614;2023-06-22T03:46:27;6.93;;;4.97;;
77055;SDS011;67471;44.918;8.614;2023-06-22T03:49:31;8.65;;;5.07;;
77055;SDS011;67471;44.918;8.614;2023-06-22T03:52:34;8.23;;;5.13;;
77055;SDS011;67471;44.918;8.614;2023-06-22T03:55:40;9.75;;;4.72;;
77055;SDS011;67471;44.918;8.614;2023-06-22T03:58:51;8.73;;;4.93;;
77055;SDS011;67471;44.918;8.614;2023-06-22T04:01:54;6.97;;;4.45;;
77055;SDS011;67471;44.918;8.614;2023-06-22T04:04:58;6.53;;;4.80;;
77055;SDS011;67471;44.918;8.614;2023-06-22T04:08:02;9.35;;;4.47;;
77055;SDS011;67471;44.918;8.614;2023-06-22T04:11:06;7.03;;;4.68;;
77055;SDS011;67471;44.918;8.614;2023-06-22T04:14:10;8.73;;;5.00;;
77055;SDS011;67471;44.918;8.614;2023-06-22T04:17:13;7.10;;;4.32;;
77055;SDS011;67471;44.918;8.614;2023-06-22T04:20:17;13.52;;;4.97;;
77055;SDS011;67471;44.918;8.614;2023-06-22T04:23:21;8.57;;;5.20;;
77055;SDS011;67471;44.918;8.614;2023-06-22T04:26:25;10.02;;;5.90;;
77055;SDS011;67471;44.918;8.614;2023-06-22T04:29:29;6.65;;;4.65;;
77055;SDS011;67471;44.918;8.614;2023-06-22T04:32:34;9.25;;;4.55;;
77055;SDS011;67471;44.918;8.614;2023-06-22T04:35:44;10.18;;;3.47;;
77055;SDS011;67471;44.918;8.614;2023-06-22T04:38:48;5.68;;;3.83;;
77055;SDS011;67471;44.918;8.614;2023-06-22T04:41:56;7.85;;;4.43;;
77055;SDS011;67471;44.918;8.614;2023-06-22T04:45:03;5.63;;;4.53;;
77055;SDS011;67471;44.918;8.614;2023-06-22T04:48:07;7.57;;;4.50;;
77055;SDS011;67471;44.918;8.614;2023-06-22T04:51:19;7.20;;;4.20;;
77055;SDS011;67471;44.918;8.614;2023-06-22T04:54:24;5.57;;;4.30;;
77055;SDS011;67471;44.918;8.614;2023-06-22T04:57:28;5.43;;;4.00;;
77055;SDS011;67471;44.918;8.614;2023-06-22T05:00:36;6.38;;;4.43;;
77055;SDS011;67471;44.918;8.614;2023-06-22T05:03:39;7.38;;;5.18;;
77055;SDS011;67471;44.918;8.614;2023-06-22T05:06:45;10.07;;;5.57;;
77055;SDS011;67471;44.918;8.614;2023-06-22T05:09:49;7.30;;;5.57;;
77055;SDS011;67471;44.918;8.614;2023-06-22T05:12:52;9.88;;;6.32;;
77055;SDS011;67471;44.918;8.614;2023-06-22T05:15:56;9.95;;;6.97;;
77055;SDS011;67471;44.918;8.614;2023-06-22T05:19:04;13.43;;;8.85;;
77055;SDS011;67471;44.918;8.614;2023-06-22T05:22:07;10.25;;;6.15;;
77055;SDS011;67471;44.918;8.614;2023-06-22T05:25:11;12.38;;;7.15;;
77055;SDS011;67471;44.918;8.614;2023-06-22T05:28:16;15.65;;;7.30;;
77055;SDS011;67471;44.918;8.614;2023-06-22T05:31:21;10.70;;;6.55;;
77055;SDS011;67471;44.918;8.614;2023-06-22T05:34:24;9.18;;;6.63;;
77055;SDS011;67471;44.918;8.614;2023-06-22T05:37:28;10.38;;;6.63;;
77055;SDS011;67471;44.918;8.614;2023-06-22T05:40:32;12.55;;;5.95;;
77055;SDS011;67471;44.918;8.614;2023-06-22T05:43:36;11.50;;;6.18;;
77055;SDS011;67471;44.918;8.614;2023-06-22T05:46:40;9.80;;;5.50;;
77055;SDS011;67471;44.918;8.614;2023-06-22T05:49:49;8.75;;;5.43;;
77055;SDS011;67471;44.918;8.614;2023-06-22T05:52:53;6.78;;;5.93;;
77055;SDS011;67471;44.918;8.614;2023-06-22T05:55:57;9.00;;;4.95;;
77055;SDS011;67471;44.918;8.614;2023-06-22T05:59:01;7.80;;;5.07;;
77055;SDS011;67471;44.918;8.614;2023-06-22T06:02:05;10.52;;;5.50;;
77055;SDS011;67471;44.918;8.614;2023-06-22T06:05:11;12.73;;;5.22;;
77055;SDS011;67471;44.918;8.614;2023-06-22T06:08:17;8.30;;;5.30;;
77055;SDS011;67471;44.918;8.614;2023-06-22T06:11:21;7.53;;;5.03;;
77055;SDS011;67471;44.918;8.614;2023-06-22T06:14:25;6.20;;;4.78;;
77055;SDS011;67471;44.918;8.614;2023-06-22T06:17:29;15.32;;;5.72;;
77055;SDS011;67471;44.918;8.614;2023-06-22T06:20:33;10.30;;;4.75;;
77055;SDS011;67471;44.918;8.614;2023-06-22T06:23:37;8.10;;;4.82;;
77055;SDS011;67471;44.918;8.614;2023-06-22T06:26:41;8.02;;;5.03;;
77055;SDS011;67471;44.918;8.614;2023-06-22T06:29:45;9.20;;;4.50;;
77055;SDS011;67471;44.918;8.614;2023-06-22T06:35:56;10.13;;;5.28;;
77055;SDS011;67471;44.918;8.614;2023-06-22T06:39:00;10.63;;;4.88;;
77055;SDS011;67471;44.918;8.614;2023-06-22T06:42:04;6.00;;;4.75;;
77055;SDS011;67471;44.918;8.614;2023-06-22T06:45:09;6.82;;;4.70;;
77055;SDS011;67471;44.918;8.614;2023-06-22T06:48:13;7.82;;;5.47;;
77055;SDS011;67471;44.918;8.614;2023-06-22T06:51:17;7.63;;;4.95;;
77055;SDS011;67471;44.918;8.614;2023-06-22T06:54:21;7.15;;;5.22;;
77055;SDS011;67471;44.918;8.614;2023-06-22T06:57:25;15.10;;;5.18;;
77055;SDS011;67471;44.918;8.614;2023-06-22T07:00:33;22.23;;;5.32;;
77055;SDS011;67471;44.918;8.614;2023-06-22T07:03:37;14.25;;;5.57;;
77055;SDS011;67471;44.918;8.614;2023-06-22T07:06:41;6.30;;;4.70;;
77055;SDS011;67471;44.918;8.614;2023-06-22T07:09:45;8.50;;;4.85;;
77055;SDS011;67471;44.918;8.614;2023-06-22T07:12:49;8.65;;;4.50;;
77055;SDS011;67471;44.918;8.614;2023-06-22T07:15:52;10.23;;;4.47;;
77055;SDS011;67471;44.918;8.614;2023-06-22T07:18:56;5.28;;;3.95;;
77055;SDS011;67471;44.918;8.614;2023-06-22T07:22:00;7.47;;;4.20;;
77055;SDS011;67471;44.918;8.614;2023-06-22T07:25:04;6.00;;;4.07;;
77055;SDS011;67471;44.918;8.614;2023-06-22T07:28:12;8.68;;;4.00;;
77055;SDS011;67471;44.918;8.614;2023-06-22T07:31:16;7.03;;;4.22;;
77055;SDS011;67471;44.918;8.614;2023-06-22T07:34:19;8.90;;;4.40;;
77055;SDS011;67471;44.918;8.614;2023-06-22T07:37:23;8.73;;;4.28;;
77055;SDS011;67471;44.918;8.614;2023-06-22T07:40:27;8.10;;;4.55;;
77055;SDS011;67471;44.918;8.614;2023-06-22T07:43:31;6.60;;;4.55;;
77055;SDS011;67471;44.918;8.614;2023-06-22T07:46:36;6.05;;;3.80;;
77055;SDS011;67471;44.918;8.614;2023-06-22T07:49:40;10.65;;;4.85;;
77055;SDS011;67471;44.918;8.614;2023-06-22T07:52:44;6.40;;;4.07;;
77055;SDS011;67471;44.918;8.614;2023-06-22T07:55:49;9.50;;;4.53;;
77055;SDS011;67471;44.918;8.614;2023-06-22T07:58:53;7.38;;;3.95;;
77055;SDS011;67471;44.918;8.614;2023-06-22T08:01:57;9.38;;;4.38;;
77055;SDS011;67471;44.918;8.614;2023-06-22T08:05:01;7.85;;;4.00;;
77055;SDS011;67471;44.918;8.614;2023-06-22T08:08:05;11.32;;;4.80;;
77055;SDS011;67471;44.918;8.614;2023-06-22T08:11:09;7.55;;;4.80;;
77055;SDS011;67471;44.918;8.614;2023-06-22T08:14:13;7.78;;;5.30;;
77055;SDS011;67471;44.918;8.614;2023-06-22T08:17:17;10.70;;;5.45;;
77055;SDS011;67471;44.918;8.614;2023-06-22T08:20:20;7.03;;;5.00;;
77055;SDS011;67471;44.918;8.614;2023-06-22T08:23:24;7.88;;;5.60;;
77055;SDS011;67471;44.918;8.614;2023-06-22T08:26:28;14.02;;;5.30;;
77055;SDS011;67471;44.918;8.614;2023-06-22T08:29:31;7.22;;;4.93;;
77055;SDS011;67471;44.918;8.614;2023-06-22T08:32:35;8.50;;;5.13;;
77055;SDS011;67471;44.918;8.614;2023-06-22T08:35:39;11.27;;;5.40;;
77055;SDS011;67471;44.918;8.614;2023-06-22T08:38:43;9.60;;;4.82;;
77055;SDS011;67471;44.918;8.614;2023-06-22T08:41:48;8.10;;;6.15;;
77055;SDS011;67471;44.918;8.614;2023-06-22T08:44:52;6.80;;;4.93;;
77055;SDS011;67471;44.918;8.614;2023-06-22T08:47:55;6.22;;;4.72;;
77055;SDS011;67471;44.918;8.614;2023-06-22T08:50:59;6.53;;;4.80;;
77055;SDS011;67471;44.918;8.614;2023-06-22T08:54:03;7.10;;;5.07;;
77055;SDS011;67471;44.918;8.614;2023-06-22T08:57:07;7.88;;;5.57;;
77055;SDS011;67471;44.918;8.614;2023-06-22T09:00:11;8.00;;;4.85;;
77055;SDS011;67471;44.918;8.614;2023-06-22T09:03:23;7.03;;;4.63;;
77055;SDS011;67471;44.918;8.614;2023-06-22T09:06:30;8.77;;;4.47;;
77055;SDS011;67471;44.918;8.614;2023-06-22T09:09:35;13.15;;;4.70;;
77055;SDS011;67471;44.918;8.614;2023-06-22T09:12:39;8.40;;;4.32;;
77055;SDS011;67471;44.918;8.614;2023-06-22T09:15:42;9.27;;;5.03;;
77055;SDS011;67471;44.918;8.614;2023-06-22T09:18:49;5.60;;;4.07;;
77055;SDS011;67471;44.918;8.614;2023-06-22T09:21:53;6.90;;;4.57;;
77055;SDS011;67471;44.918;8.614;2023-06-22T09:24:57;6.00;;;4.55;;
77055;SDS011;67471;44.918;8.614;2023-06-22T09:28:03;5.10;;;4.45;;
77055;SDS011;67471;44.918;8.614;2023-06-22T09:31:06;5.75;;;3.97;;
77055;SDS011;67471;44.918;8.614;2023-06-22T09:34:10;10.63;;;4.32;;
77055;SDS011;67471;44.918;8.614;2023-06-22T09:37:14;7.90;;;4.65;;
77055;SDS011;67471;44.918;8.614;2023-06-22T09:40:18;11.80;;;5.63;;
77055;SDS011;67471;44.918;8.614;2023-06-22T09:43:22;7.65;;;4.80;;
77055;SDS011;67471;44.918;8.614;2023-06-22T09:46:26;7.72;;;6.00;;
77055;SDS011;67471;44.918;8.614;2023-06-22T09:49:29;7.30;;;5.80;;
77055;SDS011;67471;44.918;8.614;2023-06-22T09:52:34;7.13;;;4.55;;
77055;SDS011;67471;44.918;8.614;2023-06-22T09:55:38;8.00;;;4.82;;
77055;SDS011;67471;44.918;8.614;2023-06-22T09:58:41;8.52;;;4.60;;
77055;SDS011;67471;44.918;8.614;2023-06-22T10:01:45;7.57;;;4.78;;
77055;SDS011;67471;44.918;8.614;2023-06-22T10:04:49;10.25;;;4.60;;
77055;SDS011;67471;44.918;8.614;2023-06-22T10:07:53;7.18;;;5.25;;
77055;SDS011;67471;44.918;8.614;2023-06-22T10:10:57;8.32;;;5.22;;
77055;SDS011;67471;44.918;8.614;2023-06-22T10:14:01;7.85;;;4.90;;
77055;SDS011;67471;44.918;8.614;2023-06-22T10:17:05;11.32;;;7.22;;
77055;SDS011;67471;44.918;8.614;2023-06-22T10:20:10;7.18;;;4.50;;
77055;SDS011;67471;44.918;8.614;2023-06-22T10:23:15;7.50;;;4.72;;
77055;SDS011;67471;44.918;8.614;2023-06-22T10:26:19;6.82;;;5.07;;
77055;SDS011;67471;44.918;8.614;2023-06-22T10:29:22;10.23;;;5.50;;
77055;SDS011;67471;44.918;8.614;2023-06-22T10:32:26;8.07;;;5.15;;
77055;SDS011;67471;44.918;8.614;2023-06-22T10:35:31;8.02;;;5.10;;
77055;SDS011;67471;44.918;8.614;2023-06-22T10:38:35;8.77;;;5.25;;
77055;SDS011;67471;44.918;8.614;2023-06-22T10:41:38;7.22;;;5.15;;
77055;SDS011;67471;44.918;8.614;2023-06-22T10:44:42;9.90;;;5.05;;
77055;SDS011;67471;44.918;8.614;2023-06-22T10:47:48;6.35;;;4.60;;
77055;SDS011;67471;44.918;8.614;2023-06-22T10:50:51;10.50;;;4.95;;
77055;SDS011;67471;44.918;8.614;2023-06-22T10:53:56;8.38;;;4.53;;
77055;SDS011;67471;44.918;8.614;2023-06-22T10:57:00;8.15;;;4.65;;
77055;SDS011;67471;44.918;8.614;2023-06-22T11:00:05;9.07;;;5.22;;
77055;SDS011;67471;44.918;8.614;2023-06-22T11:03:10;8.02;;;4.72;;
77055;SDS011;67471;44.918;8.614;2023-06-22T11:06:14;10.05;;;5.13;;
77055;SDS011;67471;44.918;8.614;2023-06-22T11:09:18;9.68;;;5.45;;
77055;SDS011;67471;44.918;8.614;2023-06-22T11:12:24;8.38;;;5.32;;
77055;SDS011;67471;44.918;8.614;2023-06-22T11:15:28;6.63;;;4.55;;
77055;SDS011;67471;44.918;8.614;2023-06-22T11:18:32;11.77;;;4.97;;
77055;SDS011;67471;44.918;8.614;2023-06-22T11:21:37;8.82;;;4.72;;
77055;SDS011;67471;44.918;8.614;2023-06-22T11:24:41;7.75;;;4.95;;
77055;SDS011;67471;44.918;8.614;2023-06-22T11:27:44;7.97;;;5.47;;
77055;SDS011;67471;44.918;8.614;2023-06-22T11:30:48;7.68;;;4.70;;
77055;SDS011;67471;44.918;8.614;2023-06-22T11:33:52;6.97;;;5.10;;
77055;SDS011;67471;44.918;8.614;2023-06-22T11:36:56;8.93;;;5.10;;
77055;SDS011;67471;44.918;8.614;2023-06-22T11:40:00;5.18;;;4.45;;
77055;SDS011;67471;44.918;8.614;2023-06-22T11:43:04;7.90;;;5.28;;
77055;SDS011;67471;44.918;8.614;2023-06-22T11:46:07;8.70;;;5.20;;
77055;SDS011;67471;44.918;8.614;2023-06-22T11:49:12;6.40;;;4.20;;
77055;SDS011;67471;44.918;8.614;2023-06-22T11:52:15;9.07;;;5.00;;
77055;SDS011;67471;44.918;8.614;2023-06-22T11:55:21;6.20;;;4.45;;
77055;SDS011;67471;44.918;8.614;2023-06-22T11:58:24;6.32;;;4.78;;
77055;SDS011;67471;44.918;8.614;2023-06-22T12:01:28;9.85;;;5.60;;
77055;SDS011;67471;44.918;8.614;2023-06-22T12:04:32;8.20;;;4.78;;
77055;SDS011;67471;44.918;8.614;2023-06-22T12:07:36;9.23;;;5.07;;
77055;SDS011;67471;44.918;8.614;2023-06-22T12:10:40;7.50;;;4.70;;
77055;SDS011;67471;44.918;8.614;2023-06-22T12:13:44;6.60;;;4.75;;
77055;SDS011;67471;44.918;8.614;2023-06-22T12:16:48;7.53;;;4.90;;
77055;SDS011;67471;44.918;8.614;2023-06-22T12:19:52;7.65;;;4.85;;
77055;SDS011;67471;44.918;8.614;2023-06-22T12:22:55;9.10;;;4.93;;
77055;SDS011;67471;44.918;8.614;2023-06-22T12:26:01;10.95;;;5.63;;
77055;SDS011;67471;44.918;8.614;2023-06-22T12:29:05;7.68;;;4.60;;
77055;SDS011;67471;44.918;8.614;2023-06-22T12:32:09;7.20;;;4.80;;
77055;SDS011;67471;44.918;8.614;2023-06-22T12:35:13;6.43;;;4.43;;
77055;SDS011;67471;44.918;8.614;2023-06-22T12:38:17;9.27;;;4.90;;
77055;SDS011;67471;44.918;8.614;2023-06-22T12:41:20;10.63;;;4.78;;
77055;SDS011;67471;44.918;8.614;2023-06-22T12:44:24;7.28;;;4.50;;
77055;SDS011;67471;44.918;8.614;2023-06-22T12:47:28;7.93;;;4.95;;
77055;SDS011;67471;44.918;8.614;2023-06-22T12:50:31;9.07;;;4.70;;
77055;SDS011;67471;44.918;8.614;2023-06-22T12:53:35;9.45;;;5.32;;
77055;SDS011;67471;44.918;8.614;2023-06-22T12:56:40;8.10;;;4.78;;
77055;SDS011;67471;44.918;8.614;2023-06-22T12:59:43;9.65;;;5.63;;
77055;SDS011;67471;44.918;8.614;2023-06-22T13:02:47;6.40;;;4.95;;
77055;SDS011;67471;44.918;8.614;2023-06-22T13:05:51;5.88;;;4.68;;
77055;SDS011;67471;44.918;8.614;2023-06-22T13:08:55;11.77;;;6.10;;
77055;SDS011;67471;44.918;8.614;2023-06-22T13:11:59;7.70;;;4.90;;
77055;SDS011;67471;44.918;8.614;2023-06-22T13:15:02;10.50;;;6.35;;
77055;SDS011;67471;44.918;8.614;2023-06-22T13:18:07;7.85;;;5.63;;
77055;SDS011;67471;44.918;8.614;2023-06-22T13:21:11;10.32;;;5.43;;
77055;SDS011;67471;44.918;8.614;2023-06-22T13:24:15;8.27;;;5.47;;
77055;SDS011;67471;44.918;8.614;2023-06-22T13:27:19;10.30;;;4.85;;
77055;SDS011;67471;44.918;8.614;2023-06-22T13:30:22;7.75;;;4.93;;
77055;SDS011;67471;44.918;8.614;2023-06-22T13:33:26;12.02;;;5.20;;
77055;SDS011;67471;44.918;8.614;2023-06-22T13:36:30;7.43;;;5.00;;
77055;SDS011;67471;44.918;8.614;2023-06-22T13:39:34;7.60;;;4.80;;
77055;SDS011;67471;44.918;8.614;2023-06-22T13:42:38;9.43;;;5.20;;
77055;SDS011;67471;44.918;8.614;2023-06-22T13:45:42;6.43;;;5.03;;
77055;SDS011;67471;44.918;8.614;2023-06-22T13:48:46;6.95;;;4.40;;
77055;SDS011;67471;44.918;8.614;2023-06-22T13:51:50;7.68;;;5.18;;
77055;SDS011;67471;44.918;8.614;2023-06-22T13:54:53;9.40;;;4.75;;
77055;SDS011;67471;44.918;8.614;2023-06-22T13:57:57;6.38;;;4.78;;
77055;SDS011;67471;44.918;8.614;2023-06-22T14:01:01;10.77;;;4.85;;
77055;SDS011;67471;44.918;8.614;2023-06-22T14:04:05;10.30;;;4.55;;
77055;SDS011;67471;44.918;8.614;2023-06-22T14:07:09;13.00;;;4.78;;
77055;SDS011;67471;44.918;8.614;2023-06-22T14:10:13;7.30;;;4.60;;
77055;SDS011;67471;44.918;8.614;2023-06-22T14:13:18;6.70;;;4.30;;
77055;SDS011;67471;44.918;8.614;2023-06-22T14:16:22;6.43;;;4.30;;
77055;SDS011;67471;44.918;8.614;2023-06-22T14:19:26;10.35;;;4.18;;
77055;SDS011;67471;44.918;8.614;2023-06-22T14:22:29;7.75;;;4.15;;
77055;SDS011;67471;44.918;8.614;2023-06-22T14:25:33;7.90;;;4.10;;
77055;SDS011;67471;44.918;8.614;2023-06-22T14:28:37;8.85;;;4.85;;
77055;SDS011;67471;44.918;8.614;2023-06-22T14:31:44;7.97;;;4.15;;
77055;SDS011;67471;44.918;8.614;2023-06-22T14:34:48;9.38;;;4.20;;
77055;SDS011;67471;44.918;8.614;2023-06-22T14:37:53;7.57;;;4.03;;
77055;SDS011;67471;44.918;8.614;2023-06-22T14:40:56;8.13;;;4.28;;
77055;SDS011;67471;44.918;8.614;2023-06-22T14:44:00;7.65;;;3.70;;
77055;SDS011;67471;44.918;8.614;2023-06-22T14:47:04;7.72;;;4.18;;
77055;SDS011;67471;44.918;8.614;2023-06-22T14:50:08;5.88;;;4.00;;
77055;SDS011;67471;44.918;8.614;2023-06-22T14:53:12;11.00;;;4.00;;
77055;SDS011;67471;44.918;8.614;2023-06-22T14:56:17;8.75;;;4.07;;
77055;SDS011;67471;44.918;8.614;2023-06-22T14:59:21;6.22;;;3.90;;
77055;SDS011;67471;44.918;8.614;2023-06-22T15:02:25;6.97;;;3.60;;
77055;SDS011;67471;44.918;8.614;2023-06-22T15:05:28;7.72;;;4.10;;
77055;SDS011;67471;44.918;8.614;2023-06-22T15:08:32;7.88;;;4.30;;
77055;SDS011;67471;44.918;8.614;2023-06-22T15:11:36;5.47;;;4.65;;
77055;SDS011;67471;44.918;8.614;2023-06-22T15:14:40;7.88;;;4.30;;
77055;SDS011;67471;44.918;8.614;2023-06-22T15:17:44;8.68;;;4.53;;
77055;SDS011;67471;44.918;8.614;2023-06-22T15:20:48;6.75;;;4.40;;
77055;SDS011;67471;44.918;8.614;2023-06-22T15:23:51;11.93;;;4.78;;
77055;SDS011;67471;44.918;8.614;2023-06-22T15:26:55;6.65;;;4.60;;
77055;SDS011;67471;44.918;8.614;2023-06-22T15:29:59;7.03;;;4.68;;
77055;SDS011;67471;44.918;8.614;2023-06-22T15:33:03;8.15;;;5.20;;
77055;SDS011;67471;44.918;8.614;2023-06-22T15:36:06;11.55;;;5.57;;
77055;SDS011;67471;44.918;8.614;2023-06-22T15:39:12;10.02;;;4.18;;
77055;SDS011;67471;44.918;8.614;2023-06-22T15:42:16;12.00;;;4.40;;
77055;SDS011;67471;44.918;8.614;2023-06-22T15:45:20;7.25;;;4.45;;
77055;SDS011;67471;44.918;8.614;2023-06-22T15:48:24;7.43;;;4.20;;
77055;SDS011;67471;44.918;8.614;2023-06-22T15:51:28;6.63;;;4.68;;
77055;SDS011;67471;44.918;8.614;2023-06-22T15:54:32;8.82;;;4.43;;
77055;SDS011;67471;44.918;8.614;2023-06-22T15:57:37;11.10;;;5.82;;
77055;SDS011;67471;44.918;8.614;2023-06-22T16:00:41;12.75;;;4.95;;
77055;SDS011;67471;44.918;8.614;2023-06-22T16:03:45;10.35;;;4.22;;
77055;SDS011;67471;44.918;8.614;2023-06-22T16:06:48;7.47;;;4.82;;
77055;SDS011;67471;44.918;8.614;2023-06-22T16:09:52;7.10;;;4.47;;
77055;SDS011;67471;44.918;8.614;2023-06-22T16:12:56;8.50;;;4.60;;
77055;SDS011;67471;44.918;8.614;2023-06-22T16:16:00;6.80;;;3.97;;
77055;SDS011;67471;44.918;8.614;2023-06-22T16:19:04;7.00;;;4.32;;
77055;SDS011;67471;44.918;8.614;2023-06-22T16:22:07;5.57;;;4.03;;
77055;SDS011;67471;44.918;8.614;2023-06-22T16:25:11;6.38;;;4.10;;
77055;SDS011;67471;44.918;8.614;2023-06-22T16:28:15;8.77;;;4.20;;
77055;SDS011;67471;44.918;8.614;2023-06-22T16:31:19;8.55;;;3.85;;
77055;SDS011;67471;44.918;8.614;2023-06-22T16:34:23;6.00;;;3.75;;
77055;SDS011;67471;44.918;8.614;2023-06-22T16:37:27;7.15;;;4.35;;
77055;SDS011;67471;44.918;8.614;2023-06-22T16:40:31;6.75;;;3.83;;
77055;SDS011;67471;44.918;8.614;2023-06-22T16:43:38;5.22;;;4.07;;
77055;SDS011;67471;44.918;8.614;2023-06-22T16:46:44;8.20;;;4.18;;
77055;SDS011;67471;44.918;8.614;2023-06-22T16:49:48;6.30;;;3.85;;
77055;SDS011;67471;44.918;8.614;2023-06-22T16:52:53;6.68;;;4.28;;
77055;SDS011;67471;44.918;8.614;2023-06-22T16:55:57;7.20;;;3.65;;
77055;SDS011;67471;44.918;8.614;2023-06-22T16:59:01;6.70;;;4.03;;
77055;SDS011;67471;44.918;8.614;2023-06-22T17:02:05;8.52;;;3.60;;
77055;SDS011;67471;44.918;8.614;2023-06-22T17:08:16;7.55;;;3.88;;
77055;SDS011;67471;44.918;8.614;2023-06-22T17:11:20;7.63;;;3.05;;
77055;SDS011;67471;44.918;8.614;2023-06-22T17:14:24;6.20;;;3.65;;
77055;SDS011;67471;44.918;8.614;2023-06-22T17:17:28;5.25;;;3.33;;
77055;SDS011;67471;44.918;8.614;2023-06-22T17:20:33;15.15;;;4.43;;
77055;SDS011;67471;44.918;8.614;2023-06-22T17:23:37;7.53;;;3.72;;
77055;SDS011;67471;44.918;8.614;2023-06-22T17:26:41;9.00;;;3.55;;
77055;SDS011;67471;44.918;8.614;2023-06-22T17:29:48;7.47;;;3.80;;
77055;SDS011;67471;44.918;8.614;2023-06-22T17:33:12;13.65;;;3.45;;
77055;SDS011;67471;44.918;8.614;2023-06-22T17:36:17;6.47;;;3.15;;
77055;SDS011;67471;44.918;8.614;2023-06-22T17:39:22;8.55;;;4.03;;
77055;SDS011;67471;44.918;8.614;2023-06-22T17:42:27;8.10;;;3.50;;
77055;SDS011;67471;44.918;8.614;2023-06-22T17:45:31;13.00;;;4.25;;
77055;SDS011;67471;44.918;8.614;2023-06-22T17:48:35;5.38;;;3.70;;
77055;SDS011;67471;44.918;8.614;2023-06-22T17:51:39;7.25;;;3.78;;
77055;SDS011;67471;44.918;8.614;2023-06-22T17:54:44;5.13;;;3.78;;
77055;SDS011;67471;44.918;8.614;2023-06-22T17:57:48;6.85;;;3.67;;
77055;SDS011;67471;44.918;8.614;2023-06-22T18:00:59;8.45;;;3.78;;
77055;SDS011;67471;44.918;8.614;2023-06-22T18:04:10;9.10;;;4.18;;
77055;SDS011;67471;44.918;8.614;2023-06-22T18:07:16;9.48;;;4.20;;
77055;SDS011;67471;44.918;8.614;2023-06-22T18:10:19;8.77;;;4.50;;
77055;SDS011;67471;44.918;8.614;2023-06-22T18:13:24;7.07;;;4.07;;
77055;SDS011;67471;44.918;8.614;2023-06-22T18:16:29;7.35;;;4.22;;
77055;SDS011;67471;44.918;8.614;2023-06-22T18:19:33;7.35;;;4.38;;
77055;SDS011;67471;44.918;8.614;2023-06-22T18:22:40;10.00;;;4.22;;
77055;SDS011;67471;44.918;8.614;2023-06-22T18:25:44;8.07;;;4.20;;
77055;SDS011;67471;44.918;8.614;2023-06-22T18:28:52;6.03;;;3.88;;
77055;SDS011;67471;44.918;8.614;2023-06-22T18:31:56;9.00;;;5.32;;
77055;SDS011;67471;44.918;8.614;2023-06-22T18:35:00;9.25;;;4.18;;
77055;SDS011;67471;44.918;8.614;2023-06-22T18:38:05;7.40;;;4.40;;
77055;SDS011;67471;44.918;8.614;2023-06-22T18:41:19;9.63;;;5.00;;
77055;SDS011;67471;44.918;8.614;2023-06-22T18:44:27;9.90;;;4.72;;
77055;SDS011;67471;44.918;8.614;2023-06-22T18:47:34;7.30;;;4.78;;
77055;SDS011;67471;44.918;8.614;2023-06-22T18:53:49;10.20;;;5.63;;